sensor_id;sensor_type;location;lat;lon;timestamp;P1;durP1;ratioP1;P2;durP2;ratioP2
80647;SDS011;70012;0.000;0.000;2023-05-20T00:04:06;2.80;;;2.13;;
80647;SDS011;70012;0.000;0.000;2023-05-20T00:06:33;3.58;;;2.20;;
80647;SDS011;70012;0.000;0.000;2023-05-20T00:11:26;3.47;;;2.22;;
80647;SDS011;70012;0.000;0.000;2023-05-20T00:16:19;2.95;;;1.95;;
80647;SDS011;70012;0.000;0.000;2023-05-20T00:21:13;3.05;;;2.03;;
80647;SDS011;70012;0.000;0.000;2023-05-20T00:26:06;4.38;;;2.20;;
80647;SDS011;70012;0.000;0.000;2023-05-20T00:28:32;4.13;;;2.28;;
80647;SDS011;70012;0.000;0.000;2023-05-20T00:30:59;4.65;;;2.28;;
80647;SDS011;70012;0.000;0.000;2023-05-20T00:33:26;3.88;;;1.90;;
80647;SDS011;70012;0.000;0.000;2023-05-20T00:38:19;4.47;;;2.50;;
80647;SDS011;70012;0.000;0.000;2023-05-20T00:43:12;4.47;;;2.10;;
80647;SDS011;70012;0.000;0.000;2023-05-20T00:45:39;4.32;;;2.30;;
80647;SDS011;70012;0.000;0.000;2023-05-20T00:48:06;3.72;;;2.10;;
80647;SDS011;70012;0.000;0.000;2023-05-20T00:50:33;5.00;;;2.10;;
80647;SDS011;70012;0.000;0.000;2023-05-20T00:55:26;4.45;;;2.30;;
80647;SDS011;70012;0.000;0.000;2023-05-20T01:02:46;3.45;;;2.15;;
80647;SDS011;70012;0.000;0.000;2023-05-20T01:05:14;3.85;;;2.15;;
80647;SDS011;70012;0.000;0.000;2023-05-20T01:07:41;2.67;;;2.00;;
80647;SDS011;70012;0.000;0.000;2023-05-20T01:10:08;2.85;;;2.20;;
80647;SDS011;70012;0.000;0.000;2023-05-20T01:12:38;4.05;;;2.40;;
80647;SDS011;70012;0.000;0.000;2023-05-20T01:15:09;3.30;;;2.38;;
80647;SDS011;70012;0.000;0.000;2023-05-20T01:17:48;3.33;;;2.40;;
80647;SDS011;70012;0.000;0.000;2023-05-20T01:20:17;2.97;;;2.22;;
80647;SDS011;70012;0.000;0.000;2023-05-20T01:22:49;3.35;;;2.10;;
80647;SDS011;70012;0.000;0.000;2023-05-20T01:25:19;8.68;;;2.60;;
80647;SDS011;70012;0.000;0.000;2023-05-20T01:27:46;3.00;;;2.15;;
80647;SDS011;70012;0.000;0.000;2023-05-20T01:30:14;3.53;;;2.30;;
80647;SDS011;70012;0.000;0.000;2023-05-20T01:32:42;4.05;;;2.13;;
80647;SDS011;70012;0.000;0.000;2023-05-20T01:35:13;4.30;;;2.38;;
80647;SDS011;70012;0.000;0.000;2023-05-20T01:37:42;2.90;;;2.30;;
80647;SDS011;70012;0.000;0.000;2023-05-20T01:40:13;3.55;;;1.88;;
80647;SDS011;70012;0.000;0.000;2023-05-20T01:42:41;2.88;;;2.00;;
80647;SDS011;70012;0.000;0.000;2023-05-20T01:45:09;3.95;;;2.40;;
80647;SDS011;70012;0.000;0.000;2023-05-20T01:47:36;3.13;;;2.28;;
80647;SDS011;70012;0.000;0.000;2023-05-20T01:50:02;5.47;;;2.10;;
80647;SDS011;70012;0.000;0.000;2023-05-20T01:52:29;3.45;;;2.13;;
80647;SDS011;70012;0.000;0.000;2023-05-20T01:54:57;4.20;;;2.30;;
80647;SDS011;70012;0.000;0.000;2023-05-20T01:59:50;3.20;;;1.85;;
80647;SDS011;70012;0.000;0.000;2023-05-20T02:04:47;4.18;;;2.35;;
80647;SDS011;70012;0.000;0.000;2023-05-20T02:07:16;5.03;;;2.10;;
80647;SDS011;70012;0.000;0.000;2023-05-20T02:09:46;3.85;;;2.65;;
80647;SDS011;70012;0.000;0.000;2023-05-20T02:12:13;2.90;;;1.98;;
80647;SDS011;70012;0.000;0.000;2023-05-20T02:14:43;3.88;;;2.10;;
80647;SDS011;70012;0.000;0.000;2023-05-20T02:17:11;3.17;;;2.30;;
80647;SDS011;70012;0.000;0.000;2023-05-20T02:19:41;2.92;;;2.03;;
80647;SDS011;70012;0.000;0.000;2023-05-20T02:22:09;4.93;;;2.25;;
80647;SDS011;70012;0.000;0.000;2023-05-20T02:27:02;3.70;;;2.05;;
80647;SDS011;70012;0.000;0.000;2023-05-20T02:29:30;5.18;;;2.20;;
80647;SDS011;70012;0.000;0.000;2023-05-20T02:34:23;4.68;;;2.20;;
80647;SDS011;70012;0.000;0.000;2023-05-20T02:36:51;3.35;;;2.05;;
80647;SDS011;70012;0.000;0.000;2023-05-20T02:39:18;5.40;;;2.10;;
80647;SDS011;70012;0.000;0.000;2023-05-20T02:41:45;5.13;;;2.08;;
80647;SDS011;70012;0.000;0.000;2023-05-20T02:44:11;4.63;;;2.28;;
80647;SDS011;70012;0.000;0.000;2023-05-20T02:46:38;4.32;;;2.30;;
80647;SDS011;70012;0.000;0.000;2023-05-20T02:51:31;4.20;;;2.38;;
80647;SDS011;70012;0.000;0.000;2023-05-20T02:53:58;9.48;;;4.50;;
80647;SDS011;70012;0.000;0.000;2023-05-20T02:58:52;6.13;;;2.42;;
80647;SDS011;70012;0.000;0.000;2023-05-20T03:01:18;3.97;;;2.42;;
80647;SDS011;70012;0.000;0.000;2023-05-20T03:03:45;3.95;;;2.75;;
80647;SDS011;70012;0.000;0.000;2023-05-20T03:06:12;3.28;;;2.53;;
80647;SDS011;70012;0.000;0.000;2023-05-20T03:08:38;4.78;;;2.58;;
80647;SDS011;70012;0.000;0.000;2023-05-20T03:11:05;4.47;;;2.67;;
80647;SDS011;70012;0.000;0.000;2023-05-20T03:13:32;6.05;;;2.67;;
80647;SDS011;70012;0.000;0.000;2023-05-20T03:16:00;4.10;;;2.63;;
80647;SDS011;70012;0.000;0.000;2023-05-20T03:18:26;4.00;;;2.90;;
80647;SDS011;70012;0.000;0.000;2023-05-20T03:20:53;7.07;;;3.08;;
80647;SDS011;70012;0.000;0.000;2023-05-20T03:23:20;3.88;;;2.90;;
80647;SDS011;70012;0.000;0.000;2023-05-20T03:25:46;5.78;;;3.22;;
80647;SDS011;70012;0.000;0.000;2023-05-20T03:30:39;5.97;;;2.72;;
80647;SDS011;70012;0.000;0.000;2023-05-20T03:35:33;5.78;;;3.17;;
80647;SDS011;70012;0.000;0.000;2023-05-20T03:38:00;4.55;;;2.67;;
80647;SDS011;70012;0.000;0.000;2023-05-20T03:40:27;5.47;;;2.95;;
80647;SDS011;70012;0.000;0.000;2023-05-20T03:42:53;4.20;;;3.00;;
80647;SDS011;70012;0.000;0.000;2023-05-20T03:45:20;6.47;;;3.58;;
80647;SDS011;70012;0.000;0.000;2023-05-20T03:47:47;6.90;;;3.10;;
80647;SDS011;70012;0.000;0.000;2023-05-20T03:50:14;5.57;;;3.35;;
80647;SDS011;70012;0.000;0.000;2023-05-20T03:52:40;5.90;;;3.40;;
80647;SDS011;70012;0.000;0.000;2023-05-20T03:55:07;7.30;;;3.20;;
80647;SDS011;70012;0.000;0.000;2023-05-20T03:57:34;6.15;;;3.22;;
80647;SDS011;70012;0.000;0.000;2023-05-20T04:00:03;5.43;;;2.90;;
80647;SDS011;70012;0.000;0.000;2023-05-20T04:02:35;4.78;;;2.88;;
80647;SDS011;70012;0.000;0.000;2023-05-20T04:05:02;5.03;;;2.97;;
80647;SDS011;70012;0.000;0.000;2023-05-20T04:07:30;4.80;;;3.03;;
80647;SDS011;70012;0.000;0.000;2023-05-20T04:09:56;4.18;;;3.08;;
80647;SDS011;70012;0.000;0.000;2023-05-20T04:12:24;4.70;;;3.05;;
80647;SDS011;70012;0.000;0.000;2023-05-20T04:14:56;5.60;;;3.42;;
80647;SDS011;70012;0.000;0.000;2023-05-20T04:17:29;5.35;;;3.22;;
80647;SDS011;70012;0.000;0.000;2023-05-20T04:19:57;6.63;;;3.25;;
80647;SDS011;70012;0.000;0.000;2023-05-20T04:22:25;6.93;;;3.25;;
80647;SDS011;70012;0.000;0.000;2023-05-20T04:24:52;4.95;;;3.53;;
80647;SDS011;70012;0.000;0.000;2023-05-20T04:29:46;4.47;;;3.15;;
80647;SDS011;70012;0.000;0.000;2023-05-20T04:32:15;3.95;;;2.90;;
80647;SDS011;70012;0.000;0.000;2023-05-20T04:34:44;5.93;;;3.20;;
80647;SDS011;70012;0.000;0.000;2023-05-20T04:37:11;4.53;;;3.17;;
80647;SDS011;70012;0.000;0.000;2023-05-20T04:39:38;10.90;;;3.67;;
80647;SDS011;70012;0.000;0.000;2023-05-20T04:42:05;5.25;;;3.20;;
80647;SDS011;70012;0.000;0.000;2023-05-20T04:44:32;4.95;;;2.90;;
80647;SDS011;70012;0.000;0.000;2023-05-20T04:46:58;5.70;;;3.38;;
80647;SDS011;70012;0.000;0.000;2023-05-20T04:51:52;9.27;;;4.90;;
80647;SDS011;70012;0.000;0.000;2023-05-20T04:54:20;4.95;;;2.78;;
80647;SDS011;70012;0.000;0.000;2023-05-20T04:59:13;4.75;;;2.67;;
80647;SDS011;70012;0.000;0.000;2023-05-20T05:01:40;5.93;;;3.70;;
80647;SDS011;70012;0.000;0.000;2023-05-20T05:06:33;5.25;;;3.10;;
80647;SDS011;70012;0.000;0.000;2023-05-20T05:09:00;5.65;;;2.90;;
80647;SDS011;70012;0.000;0.000;2023-05-20T05:11:26;4.40;;;2.85;;
80647;SDS011;70012;0.000;0.000;2023-05-20T05:13:53;5.53;;;3.60;;
80647;SDS011;70012;0.000;0.000;2023-05-20T05:16:21;4.95;;;2.90;;
80647;SDS011;70012;0.000;0.000;2023-05-20T05:18:47;5.43;;;2.90;;
80647;SDS011;70012;0.000;0.000;2023-05-20T05:23:41;7.60;;;3.80;;
80647;SDS011;70012;0.000;0.000;2023-05-20T05:28:34;3.58;;;2.80;;
80647;SDS011;70012;0.000;0.000;2023-05-20T05:31:00;5.20;;;3.60;;
80647;SDS011;70012;0.000;0.000;2023-05-20T05:38:24;6.95;;;3.45;;
80647;SDS011;70012;0.000;0.000;2023-05-20T05:43:18;4.90;;;3.70;;
80647;SDS011;70012;0.000;0.000;2023-05-20T05:48:11;4.82;;;3.25;;
80647;SDS011;70012;0.000;0.000;2023-05-20T05:53:04;6.70;;;3.30;;
80647;SDS011;70012;0.000;0.000;2023-05-20T06:00:24;4.57;;;3.00;;
80647;SDS011;70012;0.000;0.000;2023-05-20T06:02:50;7.05;;;3.20;;
80647;SDS011;70012;0.000;0.000;2023-05-20T06:05:17;6.85;;;3.08;;
80647;SDS011;70012;0.000;0.000;2023-05-20T06:10:11;6.10;;;3.30;;
80647;SDS011;70012;0.000;0.000;2023-05-20T06:15:04;3.78;;;2.75;;
80647;SDS011;70012;0.000;0.000;2023-05-20T06:17:32;4.07;;;3.10;;
80647;SDS011;70012;0.000;0.000;2023-05-20T06:19:59;4.75;;;3.20;;
80647;SDS011;70012;0.000;0.000;2023-05-20T06:22:26;4.10;;;2.97;;
80647;SDS011;70012;0.000;0.000;2023-05-20T06:27:20;6.18;;;3.38;;
80647;SDS011;70012;0.000;0.000;2023-05-20T06:32:13;6.60;;;3.47;;
80647;SDS011;70012;0.000;0.000;2023-05-20T06:39:32;3.78;;;2.83;;
80647;SDS011;70012;0.000;0.000;2023-05-20T06:41:59;4.03;;;3.03;;
80647;SDS011;70012;0.000;0.000;2023-05-20T06:44:26;4.95;;;3.45;;
80647;SDS011;70012;0.000;0.000;2023-05-20T06:46:52;5.07;;;3.50;;
80647;SDS011;70012;0.000;0.000;2023-05-20T06:49:19;4.10;;;3.22;;
80647;SDS011;70012;0.000;0.000;2023-05-20T06:51:46;4.22;;;3.05;;
80647;SDS011;70012;0.000;0.000;2023-05-20T06:54:13;5.35;;;4.20;;
80647;SDS011;70012;0.000;0.000;2023-05-20T06:56:43;5.43;;;3.92;;
80647;SDS011;70012;0.000;0.000;2023-05-20T07:00:02;6.13;;;3.67;;
80647;SDS011;70012;0.000;0.000;2023-05-20T07:02:58;4.68;;;3.30;;
80647;SDS011;70012;0.000;0.000;2023-05-20T07:05:49;4.72;;;3.15;;
80647;SDS011;70012;0.000;0.000;2023-05-20T07:09:28;7.38;;;3.35;;
80647;SDS011;70012;0.000;0.000;2023-05-20T07:12:11;4.80;;;3.53;;
80647;SDS011;70012;0.000;0.000;2023-05-20T07:14:54;4.15;;;2.95;;
80647;SDS011;70012;0.000;0.000;2023-05-20T07:17:21;5.40;;;3.20;;
80647;SDS011;70012;0.000;0.000;2023-05-20T07:19:48;3.88;;;3.30;;
80647;SDS011;70012;0.000;0.000;2023-05-20T07:22:14;5.47;;;2.90;;
80647;SDS011;70012;0.000;0.000;2023-05-20T07:24:41;7.35;;;3.60;;
80647;SDS011;70012;0.000;0.000;2023-05-20T07:27:08;4.82;;;3.35;;
80647;SDS011;70012;0.000;0.000;2023-05-20T07:29:35;7.35;;;3.53;;
80647;SDS011;70012;0.000;0.000;2023-05-20T07:32:02;3.95;;;3.10;;
80647;SDS011;70012;0.000;0.000;2023-05-20T07:34:30;6.25;;;3.15;;
80647;SDS011;70012;0.000;0.000;2023-05-20T07:36:57;4.18;;;3.03;;
80647;SDS011;70012;0.000;0.000;2023-05-20T07:39:24;6.47;;;3.22;;
80647;SDS011;70012;0.000;0.000;2023-05-20T07:41:50;5.20;;;3.08;;
80647;SDS011;70012;0.000;0.000;2023-05-20T07:44:17;4.60;;;3.15;;
80647;SDS011;70012;0.000;0.000;2023-05-20T07:46:44;7.50;;;3.40;;
80647;SDS011;70012;0.000;0.000;2023-05-20T07:49:10;5.20;;;3.22;;
80647;SDS011;70012;0.000;0.000;2023-05-20T07:51:37;5.72;;;3.40;;
80647;SDS011;70012;0.000;0.000;2023-05-20T07:54:04;4.20;;;2.97;;
80647;SDS011;70012;0.000;0.000;2023-05-20T07:56:31;4.72;;;2.92;;
80647;SDS011;70012;0.000;0.000;2023-05-20T07:58:58;6.72;;;3.75;;
80647;SDS011;70012;0.000;0.000;2023-05-20T08:01:26;4.65;;;3.00;;
80647;SDS011;70012;0.000;0.000;2023-05-20T08:03:53;4.32;;;2.83;;
80647;SDS011;70012;0.000;0.000;2023-05-20T08:06:20;3.60;;;2.90;;
80647;SDS011;70012;0.000;0.000;2023-05-20T08:08:46;4.35;;;3.20;;
80647;SDS011;70012;0.000;0.000;2023-05-20T08:11:13;3.60;;;3.15;;
80647;SDS011;70012;0.000;0.000;2023-05-20T08:13:39;4.88;;;3.25;;
80647;SDS011;70012;0.000;0.000;2023-05-20T08:16:06;3.88;;;3.20;;
80647;SDS011;70012;0.000;0.000;2023-05-20T08:18:33;5.07;;;3.10;;
80647;SDS011;70012;0.000;0.000;2023-05-20T08:21:02;3.75;;;2.83;;
80647;SDS011;70012;0.000;0.000;2023-05-20T08:23:29;4.95;;;2.80;;
80647;SDS011;70012;0.000;0.000;2023-05-20T08:25:58;4.25;;;2.83;;
80647;SDS011;70012;0.000;0.000;2023-05-20T08:28:29;6.30;;;3.47;;
80647;SDS011;70012;0.000;0.000;2023-05-20T08:30:56;5.50;;;3.22;;
80647;SDS011;70012;0.000;0.000;2023-05-20T08:33:25;4.00;;;3.25;;
80647;SDS011;70012;0.000;0.000;2023-05-20T08:35:52;6.20;;;3.10;;
80647;SDS011;70012;0.000;0.000;2023-05-20T08:38:19;4.65;;;2.90;;
80647;SDS011;70012;0.000;0.000;2023-05-20T08:40:50;5.20;;;3.40;;
80647;SDS011;70012;0.000;0.000;2023-05-20T08:43:18;4.10;;;3.08;;
80647;SDS011;70012;0.000;0.000;2023-05-20T08:45:45;4.85;;;3.05;;
80647;SDS011;70012;0.000;0.000;2023-05-20T08:48:12;5.60;;;3.05;;
80647;SDS011;70012;0.000;0.000;2023-05-20T08:50:42;4.00;;;3.20;;
80647;SDS011;70012;0.000;0.000;2023-05-20T08:53:10;5.47;;;2.83;;
80647;SDS011;70012;0.000;0.000;2023-05-20T08:55:56;4.75;;;2.72;;
80647;SDS011;70012;0.000;0.000;2023-05-20T08:58:28;4.43;;;3.15;;
80647;SDS011;70012;0.000;0.000;2023-05-20T09:00:55;4.20;;;2.95;;
80647;SDS011;70012;0.000;0.000;2023-05-20T09:03:21;4.15;;;2.80;;
80647;SDS011;70012;0.000;0.000;2023-05-20T09:05:49;7.07;;;3.00;;
80647;SDS011;70012;0.000;0.000;2023-05-20T09:08:17;4.55;;;3.00;;
80647;SDS011;70012;0.000;0.000;2023-05-20T09:10:43;4.43;;;3.05;;
80647;SDS011;70012;0.000;0.000;2023-05-20T09:13:11;6.63;;;3.22;;
80647;SDS011;70012;0.000;0.000;2023-05-20T09:15:37;11.60;;;3.85;;
80647;SDS011;70012;0.000;0.000;2023-05-20T09:18:06;5.47;;;2.88;;
80647;SDS011;70012;0.000;0.000;2023-05-20T09:20:33;6.55;;;3.20;;
80647;SDS011;70012;0.000;0.000;2023-05-20T09:23:04;5.65;;;2.90;;
80647;SDS011;70012;0.000;0.000;2023-05-20T09:25:32;5.80;;;3.50;;
80647;SDS011;70012;0.000;0.000;2023-05-20T09:28:00;4.80;;;3.30;;
80647;SDS011;70012;0.000;0.000;2023-05-20T09:30:26;7.93;;;3.20;;
80647;SDS011;70012;0.000;0.000;2023-05-20T09:32:57;4.95;;;2.63;;
80647;SDS011;70012;0.000;0.000;2023-05-20T09:35:26;5.05;;;2.83;;
80647;SDS011;70012;0.000;0.000;2023-05-20T09:37:54;4.55;;;3.00;;
80647;SDS011;70012;0.000;0.000;2023-05-20T09:40:23;7.53;;;3.78;;
80647;SDS011;70012;0.000;0.000;2023-05-20T09:42:52;7.80;;;3.75;;
80647;SDS011;70012;0.000;0.000;2023-05-20T09:45:21;6.47;;;2.90;;
80647;SDS011;70012;0.000;0.000;2023-05-20T09:47:50;5.47;;;3.25;;
80647;SDS011;70012;0.000;0.000;2023-05-20T09:50:19;6.18;;;3.33;;
80647;SDS011;70012;0.000;0.000;2023-05-20T09:52:48;8.40;;;3.33;;
80647;SDS011;70012;0.000;0.000;2023-05-20T09:55:19;5.55;;;3.60;;
80647;SDS011;70012;0.000;0.000;2023-05-20T09:57:48;4.47;;;3.30;;
80647;SDS011;70012;0.000;0.000;2023-05-20T10:00:14;9.68;;;3.30;;
80647;SDS011;70012;0.000;0.000;2023-05-20T10:02:46;5.30;;;2.67;;
80647;SDS011;70012;0.000;0.000;2023-05-20T10:05:16;4.35;;;2.80;;
80647;SDS011;70012;0.000;0.000;2023-05-20T10:07:58;3.55;;;2.85;;
80647;SDS011;70012;0.000;0.000;2023-05-20T10:19:26;4.70;;;2.90;;
80647;SDS011;70012;0.000;0.000;2023-05-20T10:21:55;4.72;;;2.78;;
80647;SDS011;70012;0.000;0.000;2023-05-20T10:24:28;4.93;;;3.00;;
80647;SDS011;70012;0.000;0.000;2023-05-20T10:26:56;4.50;;;3.00;;
80647;SDS011;70012;0.000;0.000;2023-05-20T10:29:25;7.47;;;2.88;;
80647;SDS011;70012;0.000;0.000;2023-05-20T10:31:52;5.75;;;3.08;;
80647;SDS011;70012;0.000;0.000;2023-05-20T10:34:19;3.88;;;3.10;;
80647;SDS011;70012;0.000;0.000;2023-05-20T10:42:07;4.78;;;3.40;;
80647;SDS011;70012;0.000;0.000;2023-05-20T10:44:44;3.42;;;2.75;;
80647;SDS011;70012;0.000;0.000;2023-05-20T10:47:12;4.25;;;3.38;;
80647;SDS011;70012;0.000;0.000;2023-05-20T10:49:45;5.70;;;2.80;;
80647;SDS011;70012;0.000;0.000;2023-05-20T10:52:13;4.00;;;3.30;;
80647;SDS011;70012;0.000;0.000;2023-05-20T10:54:59;4.93;;;3.40;;
80647;SDS011;70012;0.000;0.000;2023-05-20T10:57:26;4.95;;;3.15;;
80647;SDS011;70012;0.000;0.000;2023-05-20T10:59:54;4.57;;;3.13;;
80647;SDS011;70012;0.000;0.000;2023-05-20T11:02:21;6.03;;;3.28;;
80647;SDS011;70012;0.000;0.000;2023-05-20T11:04:52;3.75;;;3.00;;
80647;SDS011;70012;0.000;0.000;2023-05-20T11:07:25;5.10;;;3.15;;
80647;SDS011;70012;0.000;0.000;2023-05-20T11:09:54;5.50;;;3.25;;
80647;SDS011;70012;0.000;0.000;2023-05-20T11:12:25;4.13;;;3.15;;
80647;SDS011;70012;0.000;0.000;2023-05-20T11:14:53;4.15;;;3.20;;
80647;SDS011;70012;0.000;0.000;2023-05-20T11:17:20;5.53;;;3.35;;
80647;SDS011;70012;0.000;0.000;2023-05-20T11:19:47;6.95;;;3.53;;
80647;SDS011;70012;0.000;0.000;2023-05-20T11:22:20;3.90;;;3.35;;
80647;SDS011;70012;0.000;0.000;2023-05-20T11:24:47;4.95;;;3.33;;
80647;SDS011;70012;0.000;0.000;2023-05-20T11:27:14;4.18;;;3.47;;
80647;SDS011;70012;0.000;0.000;2023-05-20T11:29:41;5.95;;;3.55;;
80647;SDS011;70012;0.000;0.000;2023-05-20T11:32:08;7.82;;;3.53;;
80647;SDS011;70012;0.000;0.000;2023-05-20T11:34:37;4.80;;;3.53;;
80647;SDS011;70012;0.000;0.000;2023-05-20T11:37:08;5.40;;;3.47;;
80647;SDS011;70012;0.000;0.000;2023-05-20T11:39:37;4.20;;;3.38;;
80647;SDS011;70012;0.000;0.000;2023-05-20T11:42:06;6.60;;;4.15;;
80647;SDS011;70012;0.000;0.000;2023-05-20T11:44:33;4.97;;;3.42;;
80647;SDS011;70012;0.000;0.000;2023-05-20T11:47:01;4.57;;;3.70;;
80647;SDS011;70012;0.000;0.000;2023-05-20T11:49:28;6.20;;;3.83;;
80647;SDS011;70012;0.000;0.000;2023-05-20T11:51:56;4.18;;;3.70;;
80647;SDS011;70012;0.000;0.000;2023-05-20T11:54:23;5.65;;;3.78;;
80647;SDS011;70012;0.000;0.000;2023-05-20T11:56:50;5.75;;;3.72;;
80647;SDS011;70012;0.000;0.000;2023-05-20T11:59:19;4.03;;;3.40;;
80647;SDS011;70012;0.000;0.000;2023-05-20T12:01:49;5.25;;;4.00;;
80647;SDS011;70012;0.000;0.000;2023-05-20T12:04:16;4.93;;;3.78;;
80647;SDS011;70012;0.000;0.000;2023-05-20T12:06:44;7.50;;;3.75;;
80647;SDS011;70012;0.000;0.000;2023-05-20T12:09:12;5.97;;;4.60;;
80647;SDS011;70012;0.000;0.000;2023-05-20T12:11:39;5.90;;;3.92;;
80647;SDS011;70012;0.000;0.000;2023-05-20T12:14:07;9.35;;;6.35;;
80647;SDS011;70012;0.000;0.000;2023-05-20T12:16:36;7.38;;;5.63;;
80647;SDS011;70012;0.000;0.000;2023-05-20T12:35:07;7.20;;;3.88;;
80647;SDS011;70012;0.000;0.000;2023-05-20T12:38:10;5.65;;;3.47;;
80647;SDS011;70012;0.000;0.000;2023-05-20T12:40:36;4.78;;;3.60;;
80647;SDS011;70012;0.000;0.000;2023-05-20T12:43:04;4.57;;;3.70;;
80647;SDS011;70012;0.000;0.000;2023-05-20T12:45:31;4.32;;;3.63;;
80647;SDS011;70012;0.000;0.000;2023-05-20T12:47:58;7.25;;;4.20;;
80647;SDS011;70012;0.000;0.000;2023-05-20T12:50:25;4.50;;;3.75;;
80647;SDS011;70012;0.000;0.000;2023-05-20T12:52:52;4.53;;;3.72;;
80647;SDS011;70012;0.000;0.000;2023-05-20T12:55:19;4.90;;;3.80;;
80647;SDS011;70012;0.000;0.000;2023-05-20T12:57:46;5.60;;;4.23;;
80647;SDS011;70012;0.000;0.000;2023-05-20T13:00:13;7.20;;;4.70;;
80647;SDS011;70012;0.000;0.000;2023-05-20T13:02:42;6.18;;;4.20;;
80647;SDS011;70012;0.000;0.000;2023-05-20T13:05:10;4.97;;;3.95;;
80647;SDS011;70012;0.000;0.000;2023-05-20T13:07:37;6.53;;;4.55;;
80647;SDS011;70012;0.000;0.000;2023-05-20T13:10:04;6.07;;;4.35;;
80647;SDS011;70012;0.000;0.000;2023-05-20T13:12:35;6.65;;;3.97;;
80647;SDS011;70012;0.000;0.000;2023-05-20T13:15:03;7.47;;;4.03;;
80647;SDS011;70012;0.000;0.000;2023-05-20T13:17:30;4.70;;;4.07;;
80647;SDS011;70012;0.000;0.000;2023-05-20T13:19:57;5.53;;;3.70;;
80647;SDS011;70012;0.000;0.000;2023-05-20T13:22:24;6.30;;;3.90;;
80647;SDS011;70012;0.000;0.000;2023-05-20T13:24:51;5.05;;;4.15;;
80647;SDS011;70012;0.000;0.000;2023-05-20T13:27:19;9.73;;;4.35;;
80647;SDS011;70012;0.000;0.000;2023-05-20T13:29:52;7.65;;;4.22;;
80647;SDS011;70012;0.000;0.000;2023-05-20T13:32:18;4.15;;;3.63;;
80647;SDS011;70012;0.000;0.000;2023-05-20T13:34:45;5.75;;;3.78;;
80647;SDS011;70012;0.000;0.000;2023-05-20T13:37:12;5.28;;;3.58;;
80647;SDS011;70012;0.000;0.000;2023-05-20T13:39:38;4.25;;;3.47;;
80647;SDS011;70012;0.000;0.000;2023-05-20T13:42:05;5.07;;;4.10;;
80647;SDS011;70012;0.000;0.000;2023-05-20T13:44:32;4.45;;;3.92;;
80647;SDS011;70012;0.000;0.000;2023-05-20T13:46:58;7.90;;;4.00;;
80647;SDS011;70012;0.000;0.000;2023-05-20T13:49:25;5.88;;;3.95;;
80647;SDS011;70012;0.000;0.000;2023-05-20T13:51:52;5.97;;;4.10;;
80647;SDS011;70012;0.000;0.000;2023-05-20T13:54:19;5.20;;;4.45;;
80647;SDS011;70012;0.000;0.000;2023-05-20T13:56:46;5.50;;;3.88;;
80647;SDS011;70012;0.000;0.000;2023-05-20T13:59:13;6.63;;;4.88;;
80647;SDS011;70012;0.000;0.000;2023-05-20T14:01:40;4.90;;;4.15;;
80647;SDS011;70012;0.000;0.000;2023-05-20T14:04:11;4.47;;;3.70;;
80647;SDS011;70012;0.000;0.000;2023-05-20T14:06:38;4.97;;;3.88;;
80647;SDS011;70012;0.000;0.000;2023-05-20T14:09:06;4.53;;;3.67;;
80647;SDS011;70012;0.000;0.000;2023-05-20T14:11:36;4.47;;;3.35;;
80647;SDS011;70012;0.000;0.000;2023-05-20T14:14:02;4.55;;;3.88;;
80647;SDS011;70012;0.000;0.000;2023-05-20T14:16:29;5.65;;;3.63;;
80647;SDS011;70012;0.000;0.000;2023-05-20T14:18:57;6.70;;;3.60;;
80647;SDS011;70012;0.000;0.000;2023-05-20T14:21:23;4.60;;;3.70;;
80647;SDS011;70012;0.000;0.000;2023-05-20T14:23:50;4.72;;;4.03;;
80647;SDS011;70012;0.000;0.000;2023-05-20T14:26:16;5.22;;;3.53;;
80647;SDS011;70012;0.000;0.000;2023-05-20T14:28:43;4.15;;;3.63;;
80647;SDS011;70012;0.000;0.000;2023-05-20T14:31:10;4.90;;;4.00;;
80647;SDS011;70012;0.000;0.000;2023-05-20T14:33:36;4.80;;;3.85;;
80647;SDS011;70012;0.000;0.000;2023-05-20T14:36:03;4.47;;;3.60;;
80647;SDS011;70012;0.000;0.000;2023-05-20T14:38:30;5.15;;;3.83;;
80647;SDS011;70012;0.000;0.000;2023-05-20T14:40:56;7.47;;;3.65;;
80647;SDS011;70012;0.000;0.000;2023-05-20T14:43:23;5.80;;;4.30;;
80647;SDS011;70012;0.000;0.000;2023-05-20T14:45:50;5.75;;;4.20;;
80647;SDS011;70012;0.000;0.000;2023-05-20T14:48:17;5.55;;;3.97;;
80647;SDS011;70012;0.000;0.000;2023-05-20T14:50:44;5.55;;;3.97;;
80647;SDS011;70012;0.000;0.000;2023-05-20T14:53:13;6.13;;;4.22;;
80647;SDS011;70012;0.000;0.000;2023-05-20T14:55:40;8.27;;;4.30;;
80647;SDS011;70012;0.000;0.000;2023-05-20T14:58:06;7.25;;;4.35;;
80647;SDS011;70012;0.000;0.000;2023-05-20T15:00:33;6.10;;;4.35;;
80647;SDS011;70012;0.000;0.000;2023-05-20T15:03:00;4.93;;;3.90;;
80647;SDS011;70012;0.000;0.000;2023-05-20T15:05:27;5.57;;;4.38;;
80647;SDS011;70012;0.000;0.000;2023-05-20T15:07:53;5.97;;;3.95;;
80647;SDS011;70012;0.000;0.000;2023-05-20T15:10:20;4.93;;;3.78;;
80647;SDS011;70012;0.000;0.000;2023-05-20T15:12:46;4.72;;;3.72;;
80647;SDS011;70012;0.000;0.000;2023-05-20T15:15:13;6.07;;;4.30;;
80647;SDS011;70012;0.000;0.000;2023-05-20T15:17:40;6.00;;;4.00;;
80647;SDS011;70012;0.000;0.000;2023-05-20T15:20:07;3.90;;;3.50;;
80647;SDS011;70012;0.000;0.000;2023-05-20T15:22:34;5.20;;;3.42;;
80647;SDS011;70012;0.000;0.000;2023-05-20T15:25:01;4.55;;;3.25;;
80647;SDS011;70012;0.000;0.000;2023-05-20T15:27:28;5.68;;;3.60;;
80647;SDS011;70012;0.000;0.000;2023-05-20T15:29:54;5.00;;;3.88;;
80647;SDS011;70012;0.000;0.000;2023-05-20T15:32:21;5.75;;;4.07;;
80647;SDS011;70012;0.000;0.000;2023-05-20T15:34:48;5.68;;;3.55;;
80647;SDS011;70012;0.000;0.000;2023-05-20T15:37:15;5.30;;;4.03;;
80647;SDS011;70012;0.000;0.000;2023-05-20T15:39:41;4.40;;;3.67;;
80647;SDS011;70012;0.000;0.000;2023-05-20T15:42:08;8.90;;;3.58;;
80647;SDS011;70012;0.000;0.000;2023-05-20T15:44:39;4.85;;;3.47;;
80647;SDS011;70012;0.000;0.000;2023-05-20T15:47:05;6.28;;;4.05;;
80647;SDS011;70012;0.000;0.000;2023-05-20T15:49:35;4.28;;;3.47;;
80647;SDS011;70012;0.000;0.000;2023-05-20T15:52:02;4.25;;;3.47;;
80647;SDS011;70012;0.000;0.000;2023-05-20T15:54:29;5.32;;;3.60;;
80647;SDS011;70012;0.000;0.000;2023-05-20T15:56:57;5.50;;;3.88;;
80647;SDS011;70012;0.000;0.000;2023-05-20T15:59:24;6.25;;;3.67;;
80647;SDS011;70012;0.000;0.000;2023-05-20T16:01:51;5.32;;;3.85;;
80647;SDS011;70012;0.000;0.000;2023-05-20T16:04:17;6.10;;;3.85;;
80647;SDS011;70012;0.000;0.000;2023-05-20T16:06:45;6.25;;;3.90;;
80647;SDS011;70012;0.000;0.000;2023-05-20T16:09:12;5.20;;;3.85;;
80647;SDS011;70012;0.000;0.000;2023-05-20T16:11:38;6.03;;;4.00;;
80647;SDS011;70012;0.000;0.000;2023-05-20T16:14:05;7.93;;;3.83;;
80647;SDS011;70012;0.000;0.000;2023-05-20T16:16:32;5.53;;;3.67;;
80647;SDS011;70012;0.000;0.000;2023-05-20T16:19:01;5.97;;;4.10;;
80647;SDS011;70012;0.000;0.000;2023-05-20T16:21:28;5.65;;;3.80;;
80647;SDS011;70012;0.000;0.000;2023-05-20T16:23:54;5.03;;;4.13;;
80647;SDS011;70012;0.000;0.000;2023-05-20T16:26:21;7.40;;;4.68;;
80647;SDS011;70012;0.000;0.000;2023-05-20T16:28:48;4.50;;;3.65;;
80647;SDS011;70012;0.000;0.000;2023-05-20T16:31:14;6.18;;;4.28;;
80647;SDS011;70012;0.000;0.000;2023-05-20T16:33:41;5.45;;;4.05;;
80647;SDS011;70012;0.000;0.000;2023-05-20T16:36:08;6.70;;;3.80;;
80647;SDS011;70012;0.000;0.000;2023-05-20T16:38:34;4.45;;;3.63;;
80647;SDS011;70012;0.000;0.000;2023-05-20T16:41:01;4.47;;;3.90;;
80647;SDS011;70012;0.000;0.000;2023-05-20T16:43:28;6.93;;;4.22;;
80647;SDS011;70012;0.000;0.000;2023-05-20T16:45:54;6.13;;;4.22;;
80647;SDS011;70012;0.000;0.000;2023-05-20T16:48:21;5.53;;;3.80;;
80647;SDS011;70012;0.000;0.000;2023-05-20T16:50:48;5.13;;;3.78;;
80647;SDS011;70012;0.000;0.000;2023-05-20T16:53:14;4.97;;;4.00;;
80647;SDS011;70012;0.000;0.000;2023-05-20T16:55:41;6.60;;;3.65;;
80647;SDS011;70012;0.000;0.000;2023-05-20T16:58:08;6.35;;;3.92;;
80647;SDS011;70012;0.000;0.000;2023-05-20T17:00:35;4.20;;;3.38;;
80647;SDS011;70012;0.000;0.000;2023-05-20T17:03:01;5.43;;;3.65;;
80647;SDS011;70012;0.000;0.000;2023-05-20T17:05:29;4.60;;;3.55;;
80647;SDS011;70012;0.000;0.000;2023-05-20T17:07:55;4.78;;;3.47;;